Stoneykirk, United Kingdom

6:45 PM GMT on November 28, 2014 (GMT +0000)
Lochans | Change Station
CLOSE
Current Station
Personal Weather Station
Location: Stranraer, WIGTOWNSHIRE
Elevation: 90 ft
Nearby Weather Stations

Elev 90 ft 54.87 °N, 5.01 °W | Updated 11 minutes ago

Mostly Cloudy
Mostly Cloudy
46.9 °F
Feels Like 47 °F
N
1.0
Wind Variable Wind from ENE
Gusts 3.0 mph

Today
High -- | Low -- °F
--% Chance of Precip.
Yesterday
High -- | Low -- °F
Precip. -- in
8:14 AM 4:00 PM
Waxing Crescent, 43% visible
Pressure 29.77 in
Visibility 6.2 miles
Clouds Few 1000 ft
Scattered Clouds 2000 ft
Mostly Cloudy 3000 ft
Windchill 47 °F
Dew Point 45 °F
Humidity 93%
Rainfall 0.00 in
Snow Depth Not available.
UV 0.0 out of 12
Pollen Not available.
Air Quality Not available.
Flu Activity Not available.
METAR EGAC 281820Z 06008KT 9999 FEW010 SCT020 BKN030 11/09 Q1008

More Conditions Fewer Conditions

Pressure 29.77 in
Visibility 6.2 miles
Clouds Few 1000 ft
Scattered Clouds 2000 ft
Mostly Cloudy 3000 ft
Windchill 47 °F
Dew Point 45 °F
Humidity 93%
Rainfall 0.00 in
Snow Depth Not available.
UV 0.0 out of 12
Pollen Not available.
Air Quality Not available.
Flu Activity Not available.
METAR EGAC 281820Z 06008KT 9999 FEW010 SCT020 BKN030 11/09 Q1008

More Conditions Fewer Conditions

10-Day Weather Forecast

Almanac

Astronomy

Nov. 28, 2014 Rise Set
Actual Time
Civil Twilight
Nautical Twilight
Astronomical Twilight
Moon
Length of Visible Light
Length of Day
Tomorrow will be .
, % of the Moon is Illuminated

Today's Extremes

Country Highs Country Lows

Community

WunderPhotos

Upload Photos

1,774,257 photos uploaded!

WunderBlogs® & News

Nearby

Air Quality

  Air Quality AQ Index Pollutant
Not available.

Snow Depth

Station Depth Elevation

Earthquake Activity

City Distance Mag. Time & Date
Minimum magnitude displayed is 2.5.

Coastal Water Temperatures

Place Temperature

Nearby Weather Stations